Data for 05/02/2015

Time Sea-Level Adjusted Pressure Absolute Pressure Temperature Relative Humidity Dew Point   
(mb) (inHg) (mb) (inHg) (C) (F) (%) (C) (F)
00:05 1014 29.94 844 24.92 8.7 47.7 34 -6.1 21
00:10 1014 29.94 844 24.92 8.7 47.6 35 -6 21.2
00:15 1014 29.94 844 24.92 8.6 47.4 35 -5.9 21.5
00:20 1014 29.94 844 24.92 8.4 47 36 -5.9 21.3
00:25 1014 29.94 844 24.92 8.4 47.1 35 -6.1 21
00:30 1014 29.94 844 24.92 8.3 47 35 -6.3 20.6
00:35 1014 29.94 844 24.92 8.3 46.9 35 -6.2 20.8
00:40 1014 29.94 844 24.92 8.4 47.2 33 -6.8 19.7
00:45 1014 29.94 843 24.89 8.7 47.7 32 -7 19.5
00:50 1014 29.94 843 24.89 8.9 48.1 31 -7.1 19.2
00:55 1014 29.94 843 24.89 9.1 48.3 31 -7.1 19.2
01:00 1014 29.94 844 24.92 9 48.2 31 -7.2 19
01:05 1014 29.94 843 24.89 9.1 48.3 31 -7 19.5
01:10 1014 29.94 843 24.89 8.8 47.8 32 -6.8 19.8
01:15 1014 29.94 843 24.89 8.8 47.8 31 -7.4 18.6
01:20 1014 29.94 843 24.89 9.2 48.5 30 -7.4 18.8
01:25 1014 29.94 843 24.89 9.3 48.7 30 -7.3 18.8
01:30 1014 29.94 843 24.89 9.2 48.5 31 -7.2 19
01:35 1014 29.94 843 24.89 9.2 48.5 30 -7.4 18.7
01:40 1014 29.94 843 24.89 9.1 48.5 31 -7.1 19.3
01:45 1014 29.94 843 24.89 8.8 47.8 32 -7.1 19.2
01:50 1014 29.94 843 24.89 8.7 47.6 32 -7 19.4
01:55 1014 29.94 843 24.89 8.6 47.5 33 -6.7 19.9
02:00 1014 29.94 843 24.89 8.2 46.8 34 -6.8 19.8
02:05 1014 29.94 843 24.89 8 46.4 35 -6.5 20.2
02:10 1014 29.94 843 24.89 7.8 46.1 36 -6.3 20.7
02:15 1014 29.94 843 24.89 7.6 45.7 37 -6.1 21.1
02:20 1014 29.94 843 24.89 7.4 45.4 38 -5.9 21.4
02:25 1014 29.94 843 24.89 7.4 45.2 37 -6.5 20.3
02:30 1014 29.94 843 24.89 7.6 45.7 36 -6.5 20.2
02:35 1014 29.94 843 24.89 7.7 45.9 36 -6.6 20.1
02:40 1014 29.94 843 24.89 7.7 45.9 36 -6.3 20.6
02:45 1014 29.94 843 24.89 7.7 45.9 36 -6.3 20.7
02:50 1014 29.94 843 24.89 7.9 46.2 36 -6.4 20.4
02:55 1014 29.94 843 24.89 8 46.4 35 -6.7 20
03:00 1014 29.94 843 24.89 8.3 47 33 -7 19.4
03:05 1014 29.94 843 24.89 8.4 47.2 33 -7 19.4
03:10 1014 29.94 843 24.89 8.5 47.3 33 -7 19.5
03:15 1014 29.94 843 24.89 8.5 47.3 33 -6.7 20
03:20 1014 29.94 843 24.89 8.4 47.2 33 -6.8 19.8
03:25 1014 29.94 843 24.89 8.4 47.1 34 -6.6 20.2
03:30 1014 29.94 843 24.89 8.3 47 35 -6.2 20.9
03:35 1014 29.94 843 24.89 8.1 46.6 37 -5.9 21.4
03:40 1014 29.94 843 24.89 7.9 46.3 37 -5.8 21.6
03:45 1014 29.94 843 24.89 7.9 46.3 35 -6.7 19.9
03:50 1014 29.94 843 24.89 8.2 46.8 34 -6.7 19.9
03:55 1014 29.94 843 24.89 8.3 46.9 35 -6.4 20.4
04:00 1014 29.94 843 24.89 8.2 46.8 36 -6.1 21
04:05 1014 29.94 843 24.89 8.1 46.5 38 -5.5 22
04:10 1014 29.94 843 24.89 7.8 46.1 37 -5.8 21.5
04:15 1014 29.94 843 24.89 7.9 46.2 37 -5.9 21.4
04:20 1014 29.94 843 24.89 8 46.4 37 -5.7 21.8
04:25 1014 29.94 843 24.89 8.2 46.7 36 -6.2 20.9
04:30 1014 29.94 843 24.89 8.5 47.4 35 -6.1 21
04:35 1014 29.94 843 24.89 8.6 47.5 37 -5.3 22.4
04:40 1014 29.94 843 24.89 8.5 47.2 37 -5.3 22.5
04:45 1014 29.94 843 24.89 8.4 47.2 35 -6 21.2
04:50 1014 29.94 843 24.89 8.5 47.3 36 -5.6 21.9
04:55 1014 29.94 843 24.89 8.2 46.8 39 -4.9 23.2
05:00 1013 29.91 843 24.89 8 46.4 40 -4.9 23.1
05:05 1013 29.91 843 24.89 7.9 46.2 42 -4.1 24.7
05:10 1013 29.91 843 24.89 7.7 45.8 44 -3.8 25.1
05:15 1013 29.91 843 24.89 7.3 45.2 47 -3.2 26.2
05:20 1013 29.91 843 24.89 7.1 44.7 47 -3.5 25.8
05:25 1013 29.91 842 24.86 7.1 44.8 46 -3.6 25.6
05:30 1013 29.91 842 24.86 7.4 45.2 43 -4.4 24.1
05:35 1013 29.91 842 24.86 7.6 45.7 41 -4.8 23.3
05:40 1013 29.91 842 24.86 7.9 46.2 39 -5.2 22.6
05:45 1013 29.91 842 24.86 8.1 46.7 39 -4.9 23.3
05:50 1013 29.91 842 24.86 8.2 46.8 39 -4.7 23.5
05:55 1013 29.91 842 24.86 8.3 46.9 39 -4.9 23.1
06:00 1013 29.91 842 24.86 8.5 47.4 36 -5.6 21.9
06:05 1013 29.91 842 24.86 8.9 48 34 -6.1 21.1
06:10 1013 29.91 842 24.86 9.1 48.4 35 -5.5 22
06:15 1013 29.91 842 24.86 9.2 48.6 34 -5.7 21.7
06:20 1013 29.91 842 24.86 9.2 48.6 37 -4.5 23.8
06:25 1013 29.91 842 24.86 9.1 48.3 37 -4.8 23.4
06:30 1013 29.91 842 24.86 8.8 47.9 39 -4.4 24
06:35 1013 29.91 842 24.86 8.7 47.7 38 -4.7 23.6
06:40 1013 29.91 842 24.86 9 48.1 35 -5.6 21.9
06:45 1013 29.91 842 24.86 9.4 48.8 33 -6.1 21
06:50 1013 29.91 842 24.86 9.6 49.2 33 -6 21.1
06:55 1013 29.91 843 24.89 9.7 49.4 32 -6.1 21.1
07:00 1013 29.91 843 24.89 9.9 49.9 31 -6.3 20.6
07:05 1013 29.91 842 24.86 10.1 50.1 31 -6.3 20.7
07:10 1013 29.91 843 24.89 10.2 50.3 31 -6.2 20.9
07:15 1013 29.91 843 24.89 10.3 50.5 33 -5.3 22.4
07:20 1013 29.91 843 24.89 10.1 50.2 33 -5.6 22
07:25 1013 29.91 843 24.89 10.1 50.1 34 -5.2 22.7
07:30 1013 29.91 843 24.89 10.2 50.3 33 -5.3 22.5
07:35 1013 29.91 843 24.89 10.2 50.4 32 -5.7 21.7
07:40 1013 29.91 843 24.89 10.4 50.7 32 -5.5 22.2
07:45 1013 29.91 843 24.89 10.4 50.7 33 -5.3 22.5
07:50 1013 29.91 843 24.89 10.5 50.9 31 -6 21.1
07:55 1013 29.91 843 24.89 10.8 51.4 33 -4.8 23.4
08:00 1013 29.91 843 24.89 11 51.9 30 -5.9 21.4
08:05 1013 29.91 843 24.89 11.3 52.4 30 -5.5 22
08:10 1013 29.91 843 24.89 11.5 52.7 31 -4.8 23.3
08:15 1013 29.91 843 24.89 11.6 52.8 32 -4.4 24.1
08:20 1013 29.91 843 24.89 11.6 52.8 32 -4.3 24.2
08:25 1013 29.91 843 24.89 11.6 52.9 33 -4 24.8
08:30 1013 29.91 843 24.89 11.7 53.1 32 -4.3 24.3
08:35 1013 29.91 843 24.89 11.9 53.4 33 -3.9 24.9
08:40 1013 29.91 843 24.89 12 53.7 33 -3.6 25.5
08:45 1013 29.91 843 24.89 12.1 53.8 33 -3.6 25.4
08:50 1013 29.91 843 24.89 12.3 54.2 33 -3.4 25.8
08:55 1013 29.91 843 24.89 12.5 54.4 33 -3.2 26.2
09:00 1013 29.91 843 24.89 12.4 54.4 32 -3.7 25.4
09:05 1013 29.91 843 24.89 12.5 54.6 30 -4.3 24.2
09:10 1013 29.91 843 24.89 12.7 54.8 30 -4.5 23.9
09:15 1013 29.91 843 24.89 12.9 55.3 30 -4.3 24.3
09:20 1013 29.91 843 24.89 13.4 56 28 -4.8 23.4
09:25 1013 29.91 843 24.89 13.7 56.7 28 -4.5 23.9
09:30 1013 29.91 843 24.89 14 57.1 29 -3.7 25.3
09:35 1013 29.91 843 24.89 14.1 57.3 29 -3.4 25.9
09:40 1013 29.91 843 24.89 14.3 57.7 27 -4.5 23.9
09:45 1013 29.91 843 24.89 14.5 58.1 25 -5 23
09:50 1013 29.91 843 24.89 14.7 58.5 29 -3.2 26.2
09:55 1013 29.91 843 24.89 14.4 57.9 30 -2.8 27
10:00 1013 29.91 843 24.89 14.3 57.7 29 -3.3 26
10:05 1013 29.91 843 24.89 14.5 58.1 28 -3.6 25.6
10:10 1013 29.91 843 24.89 14.6 58.4 27 -4 24.7
10:15 1013 29.91 842 24.86 14.7 58.5 26 -4.5 23.8
10:20 1013 29.91 842 24.86 14.9 58.9 25 -4.7 23.5
10:25 1013 29.91 843 24.89 15.2 59.3 25 -4.5 24
10:30 1013 29.91 842 24.86 15.4 59.6 26 -4.1 24.6
10:35 1013 29.91 843 24.89 15.4 59.8 24 -4.7 23.6
10:40 1013 29.91 843 24.89 15.5 59.9 24 -4.7 23.6
10:45 1013 29.91 843 24.89 15.7 60.3 23 -5.3 22.4
10:50 1013 29.91 843 24.89 15.9 60.5 24 -4.3 24.2
10:55 1013 29.91 843 24.89 15.9 60.7 24 -4.4 24.1
11:00 1013 29.91 842 24.86 16 60.9 27 -2.7 27.2
11:05 1013 29.91 842 24.86 15.6 60.1 28 -2.6 27.4
11:10 1013 29.91 842 24.86 15.7 60.3 26 -3.6 25.4
11:15 1013 29.91 842 24.86 15.5 60 24 -5 23.1
11:20 1013 29.91 842 24.86 15.3 59.5 25 -4.8 23.4
11:25 1013 29.91 842 24.86 15.5 60 27 -3.4 25.8
11:30 1013 29.91 842 24.86 15.7 60.2 26 -3.8 25.2
11:35 1013 29.91 842 24.86 16.2 61.2 24 -4.3 24.2
11:40 1013 29.91 842 24.86 16.4 61.5 23 -4.6 23.8
11:45 1013 29.91 842 24.86 16.5 61.7 24 -4.2 24.5
11:50 1013 29.91 842 24.86 16.6 61.8 23 -4.8 23.4
11:55 1013 29.91 842 24.86 16.9 62.5 22 -4.5 23.8
12:00 1013 29.91 842 24.86 17.2 62.9 22 -4.7 23.5
12:05 1013 29.91 842 24.86 17.5 63.5 21 -4.9 23.1
12:10 1013 29.91 842 24.86 18.1 64.6 20 -5 23
12:15 1013 29.91 842 24.86 18.1 64.5 22 -4.1 24.7
12:20 1013 29.91 842 24.86 18.1 64.7 20 -4.8 23.3
12:25 1013 29.91 842 24.86 18.8 65.9 20 -4.4 24.1
12:30 1013 29.91 842 24.86 19.5 67 20 -4 24.8
12:35 1013 29.91 842 24.86 19.4 66.8 15 -7.5 18.5
12:40 1013 29.91 842 24.86 19.5 67.1 14 -8.6 16.5
12:45 1012 29.88 842 24.86 19.3 66.7 15 -8.2 17.3
12:50 1012 29.88 842 24.86 19.4 67 14 -9.1 15.7
12:55 1012 29.88 842 24.86 19.2 66.6 14 -9.1 15.6
13:00 1012 29.88 841 24.83 19.1 66.3 13 -9.6 14.8
13:05 1012 29.88 841 24.83 18.9 66.1 13 -10.2 13.7
13:10 1012 29.88 841 24.83 18.9 66 14 -9.1 15.5
13:15 1012 29.88 841 24.83 18.9 65.9 14 -8.8 16.1
13:20 1012 29.88 841 24.83 18.9 65.9 15 -8.4 16.8
13:25 1012 29.88 841 24.83 18.9 66.1 14 -8.9 16
13:30 1012 29.88 841 24.83 18.9 66.1 14 -9.2 15.5
13:35 1012 29.88 841 24.83 19 66.1 14 -9.5 15
13:40 1012 29.88 841 24.83 19.1 66.3 15 -8.5 16.7
13:45 1012 29.88 841 24.83 19.1 66.3 15 -8.5 16.8
13:50 1012 29.88 841 24.83 19.1 66.5 14 -8.6 16.5
13:55 1012 29.88 841 24.83 19.3 66.7 14 -9.2 15.5
14:00 1012 29.88 841 24.83 19.3 66.7 14 -8.6 16.6
14:05 1012 29.88 841 24.83 19.3 66.8 14 -8.6 16.5
14:10 1012 29.88 841 24.83 19.4 66.8 14 -8.9 15.9
14:15 1012 29.88 841 24.83 19.3 66.8 15 -8.3 17.1
14:20 1012 29.88 841 24.83 19.5 67 14 -8.3 17.1
14:25 1012 29.88 841 24.83 19.5 67.2 14 -8.5 16.8
14:30 1012 29.88 841 24.83 19.5 67 15 -8 17.6
14:35 1012 29.88 841 24.83 19.5 67.1 14 -8.2 17.2
14:40 1012 29.88 841 24.83 19.5 67.2 15 -7.8 17.9
14:45 1012 29.88 841 24.83 19.5 67.1 14 -8.2 17.3
14:50 1012 29.88 841 24.83 19.6 67.2 15 -8 17.5
14:55 1012 29.88 841 24.83 19.7 67.4 15 -7.6 18.3
15:00 1012 29.88 841 24.83 19.7 67.5 15 -7.8 18
15:05 1011 29.85 841 24.83 19.8 67.6 15 -7.8 17.9
15:10 1011 29.85 841 24.83 19.8 67.6 15 -7.6 18.3
15:15 1011 29.85 841 24.83 19.8 67.7 14 -8.1 17.4
15:20 1011 29.85 841 24.83 19.7 67.5 14 -8.2 17.3
15:25 1011 29.85 841 24.83 19.7 67.4 15 -7.9 17.8
15:30 1011 29.85 841 24.83 19.6 67.4 15 -7.9 17.8
15:35 1011 29.85 841 24.83 19.8 67.7 15 -7.5 18.4
15:40 1011 29.85 840 24.81 19.7 67.4 15 -7.8 18
15:45 1011 29.85 840 24.81 19.4 67 14 -8.6 16.5
15:50 1011 29.85 840 24.81 19.4 67 15 -7.8 17.9
15:55 1011 29.85 840 24.81 19.4 67 16 -7.2 19.1
16:00 1011 29.85 840 24.81 19.5 67.2 15 -7.4 18.6
16:05 1011 29.85 841 24.83 19.5 67.2 15 -7.5 18.6
16:10 1011 29.85 841 24.83 19.4 66.9 17 -6.3 20.7
16:15 1011 29.85 840 24.81 19.3 66.7 16 -7.4 18.6
16:20 1011 29.85 841 24.83 19.2 66.5 16 -7.1 19.2
16:25 1011 29.85 841 24.83 18.9 66.1 18 -6 21.2
16:30 1012 29.88 841 24.83 18.9 66 19 -5.4 22.3
16:35 1012 29.88 841 24.83 18.7 65.7 19 -5.3 22.5
16:40 1012 29.88 841 24.83 18.6 65.4 19 -5.3 22.4
16:45 1012 29.88 841 24.83 18.4 65.2 19 -5.2 22.6
16:50 1012 29.88 841 24.83 18.3 65 20 -4.6 23.6
16:55 1011 29.85 841 24.83 18.2 64.7 21 -4.6 23.7
17:00 1012 29.88 841 24.83 18.2 64.8 20 -4.9 23.2
17:05 1012 29.88 841 24.83 18.3 64.9 21 -4.2 24.4
17:10 1012 29.88 841 24.83 18.1 64.7 21 -4.4 24.1
17:15 1012 29.88 841 24.83 18 64.4 21 -4.4 24
17:20 1012 29.88 841 24.83 18 64.3 21 -4.4 24.2
17:25 1012 29.88 841 24.83 17.8 64 22 -4.4 24.1
17:30 1012 29.88 841 24.83 17.6 63.8 22 -4.5 23.9
17:35 1012 29.88 841 24.83 17.6 63.6 21 -4.6 23.7
17:40 1012 29.88 841 24.83 17.6 63.7 23 -3.7 25.3
17:45 1012 29.88 841 24.83 17.7 63.8 22 -4 24.7
17:50 1012 29.88 841 24.83 17.7 63.8 22 -4.2 24.5
17:55 1012 29.88 841 24.83 17.6 63.6 24 -3 26.5
18:00 1012 29.88 841 24.83 17 62.6 25 -3 26.6
18:05 1012 29.88 841 24.83 16.7 62 25 -3.3 26.1
18:10 1012 29.88 842 24.86 16.6 61.8 25 -3.4 25.8
18:15 1012 29.88 841 24.83 16.5 61.7 27 -2.7 27.2
18:20 1012 29.88 841 24.83 16.4 61.4 25 -3.4 25.9
18:25 1012 29.88 841 24.83 16.4 61.4 25 -3.8 25.2
18:30 1012 29.88 841 24.83 16.5 61.6 23 -4.4 24.1
18:35 1012 29.88 841 24.83 16.5 61.6 24 -4.2 24.4
18:40 1012 29.88 841 24.83 16.4 61.6 24 -4.1 24.6
18:45 1012 29.88 841 24.83 16.4 61.6 24 -4 24.9
18:50 1012 29.88 841 24.83 16.4 61.5 24 -4 24.8
18:55 1012 29.88 841 24.83 16.3 61.4 25 -3.7 25.3
19:00 1012 29.88 842 24.86 16.2 61.2 25 -3.5 25.6
19:05 1012 29.88 842 24.86 16.1 60.9 26 -3.4 25.9
19:10 1012 29.88 842 24.86 15.8 60.5 28 -2.7 27.2
19:15 1013 29.91 842 24.86 15.5 59.9 29 -2.6 27.3
19:20 1013 29.91 842 24.86 15.3 59.6 28 -3 26.6
19:25 1013 29.91 842 24.86 15.4 59.6 28 -3 26.6
19:30 1013 29.91 842 24.86 15.3 59.5 28 -3.1 26.3
19:35 1013 29.91 842 24.86 15.1 59.2 28 -3.2 26.3
19:40 1013 29.91 842 24.86 15 59.1 28 -3.4 25.8
19:45 1013 29.91 842 24.86 15 59 27 -3.8 25.1
19:50 1013 29.91 842 24.86 15 59.1 26 -4 24.8
19:55 1013 29.91 842 24.86 15.1 59.1 26 -4.2 24.4
20:00 1013 29.91 842 24.86 15 59.1 26 -4.4 24
20:05 1013 29.91 842 24.86 15 59 26 -4.2 24.5
20:10 1013 29.91 842 24.86 14.8 58.7 27 -3.9 25
20:15 1013 29.91 842 24.86 14.5 58.1 28 -3.8 25.2
20:20 1013 29.91 843 24.89 14.1 57.4 29 -3.7 25.3
20:25 1013 29.91 843 24.89 14 57.2 28 -4.2 24.4
20:30 1013 29.91 843 24.89 13.9 57.1 28 -4.1 24.7
20:35 1013 29.91 843 24.89 14 57.2 27 -4.8 23.3
20:40 1013 29.91 843 24.89 14 57.3 25 -5.5 22.1
20:45 1014 29.94 843 24.89 14.1 57.4 26 -5 23
20:50 1014 29.94 843 24.89 14.1 57.4 25 -5.7 21.7
20:55 1014 29.94 843 24.89 14.1 57.3 24 -6.4 20.5
21:00 1014 29.94 843 24.89 13.9 57.1 22 -7.4 18.6
21:05 1014 29.94 843 24.89 13.9 57 22 -7.5 18.6
21:10 1014 29.94 843 24.89 13.9 57.1 22 -7.2 19
21:15 1014 29.94 843 24.89 13.9 57 21 -8.2 17.2
21:20 1014 29.94 843 24.89 13.8 56.9 21 -8.4 17
21:25 1014 29.94 843 24.89 13.8 56.8 20 -8.7 16.3
21:30 1014 29.94 843 24.89 13.7 56.6 21 -8.4 16.9
21:35 1014 29.94 843 24.89 13.5 56.3 22 -7.7 18.1
21:40 1014 29.94 843 24.89 13.3 55.9 23 -7.3 18.8
21:45 1014 29.94 843 24.89 13 55.4 24 -7.2 19
21:50 1014 29.94 843 24.89 12.7 54.9 24 -7.2 19
21:55 1014 29.94 843 24.89 12.5 54.5 25 -6.8 19.8
22:00 1014 29.94 844 24.92 12.4 54.2 26 -6.5 20.3
22:05 1014 29.94 844 24.92 12.2 53.9 27 -6.2 20.9
22:10 1014 29.94 844 24.92 12 53.7 28 -5.9 21.3
22:15 1014 29.94 844 24.92 11.8 53.3 29 -5.8 21.6
22:20 1014 29.94 844 24.92 11.7 53.1 28 -5.9 21.3
22:25 1014 29.94 844 24.92 11.7 53.1 28 -5.9 21.4
22:30 1014 29.94 844 24.92 11.8 53.2 29 -5.7 21.8
22:35 1015 29.97 844 24.92 11.6 52.9 30 -5.2 22.7
22:40 1015 29.97 844 24.92 11.5 52.6 31 -5 23
22:45 1015 29.97 844 24.92 11.4 52.5 30 -5.7 21.8
22:50 1015 29.97 844 24.92 11.4 52.6 29 -5.9 21.5
22:55 1015 29.97 844 24.92 11.4 52.6 31 -5 23
23:00 1015 29.97 844 24.92 11.2 52.1 30 -5.9 21.4
23:05 1015 29.97 844 24.92 11.2 52.1 30 -5.6 22
23:10 1015 29.97 844 24.92 10.9 51.6 34 -4.4 24.1
23:15 1015 29.97 844 24.92 10.5 50.8 35 -4.5 23.9
23:20 1015 29.97 844 24.92 10.1 50.2 34 -5.2 22.6
23:25 1015 29.97 844 24.92 10 49.9 34 -5.3 22.4
23:30 1015 29.97 844 24.92 10.1 50.1 34 -5.1 22.8
23:35 1015 29.97 844 24.92 9.9 49.8 34 -5.2 22.7
23:40 1015 29.97 844 24.92 9.8 49.7 31 -6.3 20.6
23:45 1015 29.97 844 24.92 10 49.9 31 -6.4 20.5
23:50 1015 29.97 844 24.92 10.1 50.1 32 -5.9 21.3
23:55 1015 29.97 844 24.92 9.7 49.5 33 -5.7 21.7
24:00 1015 29.97 844 24.92 9.7 49.4 32 -6.3 20.7